Time;durP1;ratioP1;P1;durP2;ratioP2;P2;SDS_P1;SDS_P2;PMS_P1;PMS_P2;Temp;Humidity;BMP_temperature;BMP_pressure;BME280_temperature;BME280_humidity;BME280_pressure;Samples;Min_cycle;Max_cycle;Signal;HPM_P1;HPM_P2
2022/04/17 00:01:31;;;;;;;24.95;12.73;;;;;;;6.50;52.23;102822.06;5062713;28;20029;-65
2022/04/17 00:03:56;;;;;;;24.58;12.43;;;;;;;6.45;51.76;102818.28;5063680;28;20032;-66
2022/04/17 00:06:21;;;;;;;23.30;12.10;;;;;;;6.32;53.33;102816.75;5060417;28;20368;-65
2022/04/17 00:08:47;;;;;;;23.52;11.95;;;;;;;6.21;52.78;102821.41;5064006;28;20023;-65
2022/04/17 00:11:12;;;;;;;22.77;11.75;;;;;;;6.18;52.27;102815.09;5060831;28;20111;-65
2022/04/17 00:13:38;;;;;;;23.95;12.18;;;;;;;6.30;51.60;102820.09;5064257;28;20032;-65
2022/04/17 00:16:03;;;;;;;23.35;11.43;;;;;;;6.28;51.74;102815.66;5061673;28;20033;-65
2022/04/17 00:18:29;;;;;;;23.73;11.68;;;;;;;6.29;50.63;102816.56;5063314;28;20021;-65
2022/04/17 00:20:54;;;;;;;24.42;12.18;;;;;;;6.37;50.52;102811.72;5062585;28;20027;-65
2022/04/17 00:23:19;;;;;;;23.35;12.13;;;;;;;6.24;53.73;102816.31;5062044;28;20563;-65
2022/04/17 00:25:45;;;;;;;23.30;12.30;;;;;;;5.98;55.07;102819.28;5063898;28;20467;-65
2022/04/17 00:28:10;;;;;;;22.20;11.88;;;;;;;5.77;56.26;102812.00;5060812;28;20029;-66
2022/04/17 00:30:36;;;;;;;23.85;12.20;;;;;;;5.75;56.13;102821.47;5064050;28;20126;-66
2022/04/17 00:33:01;;;;;;;22.65;12.30;;;;;;;5.71;56.82;102809.03;5061854;28;20093;-65
2022/04/17 00:35:26;;;;;;;22.67;11.77;;;;;;;5.74;56.43;102807.47;5062729;28;20171;-66
2022/04/17 00:37:52;;;;;;;23.08;12.13;;;;;;;5.68;56.79;102819.34;5063152;28;20063;-66
2022/04/17 00:40:18;;;;;;;23.27;11.93;;;;;;;5.54;56.62;102818.56;5061239;28;20527;-66
2022/04/17 00:42:44;;;;;;;23.38;11.68;;;;;;;5.50;56.34;102814.84;5064261;28;20021;-65
2022/04/17 00:45:09;;;;;;;23.65;12.23;;;;;;;5.51;57.26;102821.91;5058919;28;20518;-65
2022/04/17 00:47:35;;;;;;;23.17;11.77;;;;;;;5.49;56.92;102813.06;5061356;28;20025;-65
2022/04/17 00:50:01;;;;;;;22.48;11.95;;;;;;;5.43;57.81;102812.69;5063256;28;20099;-65
2022/04/17 00:52:27;;;;;;;22.95;11.95;;;;;;;5.37;57.90;102807.13;5062034;28;20032;-65
2022/04/17 00:54:54;;;;;;;23.65;12.63;;;;;;;5.45;58.15;102805.84;5061748;28;20109;-65
2022/04/17 00:57:19;;;;;;;23.30;12.05;;;;;;;5.37;58.05;102814.97;5063269;28;20048;-66
2022/04/17 00:59:46;;;;;;;23.58;12.10;;;;;;;5.36;58.76;102816.72;5060804;28;20413;-66
2022/04/17 01:02:15;;;;;;;22.88;11.93;;;;;;;5.31;59.10;102810.28;5063908;28;20086;-66
2022/04/17 01:04:41;;;;;;;23.17;12.02;;;;;;;5.28;59.78;102809.22;5060933;28;20059;-66
2022/04/17 01:07:08;;;;;;;22.67;11.43;;;;;;;5.15;58.00;102805.88;5064095;28;20056;-65
2022/04/17 01:09:34;;;;;;;22.50;11.68;;;;;;;5.16;61.20;102810.31;5061447;28;20043;-65
2022/04/17 01:12:00;;;;;;;22.30;10.93;;;;;;;5.10;57.39;102802.09;5063842;28;20025;-65
2022/04/17 01:14:26;;;;;;;23.02;10.77;;;;;;;5.09;58.41;102802.91;5065786;28;20029;-65
2022/04/17 01:16:52;;;;;;;23.17;11.20;;;;;;;5.00;58.16;102800.66;5065692;28;20078;-65
2022/04/17 01:19:18;;;;;;;21.80;11.18;;;;;;;4.87;58.40;102798.13;5067281;28;20422;-65
2022/04/17 01:21:46;;;;;;;21.92;11.30;;;;;;;4.71;60.17;102807.69;5064287;28;20104;-65
2022/04/17 01:26:57;;;;;;;21.55;11.02;;;;;;;4.68;62.58;102804.91;5065989;28;20083;-65
2022/04/17 01:29:26;;;;;;;22.13;11.18;;;;;;;4.65;63.23;102807.34;5066393;28;20039;-65
2022/04/17 01:31:53;;;;;;;22.52;11.10;;;;;;;4.73;62.90;102810.41;5065348;28;20086;-65
2022/04/17 01:34:20;;;;;;;22.13;11.13;;;;;;;4.57;63.46;102813.81;5066595;28;20024;-65
2022/04/17 01:36:47;;;;;;;22.13;10.80;;;;;;;4.56;62.82;102818.97;5064390;28;20021;-65
2022/04/17 01:39:13;;;;;;;22.20;10.80;;;;;;;4.51;62.70;102818.69;5067196;28;20107;-65
2022/04/17 01:41:39;;;;;;;23.10;10.93;;;;;;;4.47;63.80;102817.63;5063663;28;20035;-65
2022/04/17 01:44:06;;;;;;;21.73;11.02;;;;;;;4.39;63.38;102808.38;5066959;28;20029;-65
2022/04/17 01:46:31;;;;;;;22.15;10.73;;;;;;;4.33;63.17;102822.00;5064436;28;20049;-65
2022/04/17 01:48:57;;;;;;;23.20;10.38;;;;;;;4.42;62.93;102813.81;5065701;28;20516;-65
2022/04/17 01:51:22;;;;;;;21.00;10.18;;;;;;;4.38;63.94;102813.53;5066030;28;20066;-65
2022/04/17 01:53:48;;;;;;;21.73;10.43;;;;;;;4.32;62.05;102806.19;5062829;28;20132;-65
2022/04/17 01:56:13;;;;;;;21.63;10.40;;;;;;;4.29;62.78;102800.78;5066835;28;20021;-65
2022/04/17 01:58:38;;;;;;;22.60;10.57;;;;;;;4.38;63.20;102803.06;5063458;28;20029;-65
2022/04/17 02:01:04;;;;;;;21.13;10.18;;;;;;;4.28;62.15;102805.13;5066025;28;20528;-65
2022/04/17 02:03:30;;;;;;;21.35;10.57;;;;;;;4.28;62.49;102799.88;5060521;28;20025;-65
2022/04/17 02:05:55;;;;;;;22.15;10.45;;;;;;;4.22;62.44;102806.44;5066697;28;20021;-65
2022/04/17 02:08:21;;;;;;;21.52;10.48;;;;;;;4.09;63.54;102796.94;5064256;28;20459;-65
2022/04/17 02:10:46;;;;;;;22.85;10.63;;;;;;;3.94;63.53;102807.34;5064928;28;20071;-65
2022/04/17 02:13:12;;;;;;;22.27;10.50;;;;;;;3.83;64.50;102794.50;5065576;28;20078;-65
2022/04/17 02:15:37;;;;;;;22.38;10.40;;;;;;;3.69;68.37;102800.56;5063775;28;20475;-65
2022/04/17 02:18:02;;;;;;;21.77;10.27;;;;;;;3.63;67.23;102800.19;5066817;28;20102;-65
2022/04/17 02:20:27;;;;;;;21.92;10.50;;;;;;;3.64;69.46;102786.28;5063410;28;20041;-65
2022/04/17 02:22:53;;;;;;;22.13;10.50;;;;;;;3.71;68.91;102791.09;5065345;28;20032;-65
2022/04/17 02:25:18;;;;;;;21.95;10.40;;;;;;;3.71;68.14;102792.81;5064558;28;20031;-66
2022/04/17 02:27:44;;;;;;;21.75;10.50;;;;;;;3.76;67.22;102791.41;5064281;28;20056;-66
2022/04/17 02:30:10;;;;;;;21.60;10.52;;;;;;;3.66;68.66;102789.91;5065376;28;20028;-66
2022/04/17 02:32:35;;;;;;;22.23;10.98;;;;;;;3.57;68.73;102791.94;5063277;28;20068;-66
2022/04/17 02:35:01;;;;;;;21.80;10.40;;;;;;;3.43;68.66;102796.28;5066468;28;20407;-66
2022/04/17 02:37:26;;;;;;;22.38;10.80;;;;;;;3.31;70.79;102791.16;5063339;28;20100;-66
2022/04/17 02:39:51;;;;;;;21.40;10.00;;;;;;;3.28;70.67;102789.25;5065598;28;20029;-66
2022/04/17 02:42:17;;;;;;;22.10;10.52;;;;;;;3.29;71.80;102788.47;5064686;28;20541;-66
2022/04/17 02:44:42;;;;;;;21.85;10.65;;;;;;;3.21;71.65;102781.81;5061557;28;20063;-66
2022/04/17 02:49:52;;;;;;;22.92;10.88;;;;;;;3.03;72.61;102793.66;5062973;28;20043;-66
2022/04/17 02:52:17;;;;;;;22.15;11.38;;;;;;;3.00;75.50;102789.16;5065328;28;20024;-66
2022/04/17 02:54:42;;;;;;;22.67;11.10;;;;;;;2.90;75.75;102786.75;5063594;28;20090;-66
2022/04/17 02:57:08;;;;;;;23.08;11.48;;;;;;;2.92;77.33;102787.75;5064132;28;20074;-66
2022/04/17 02:59:33;;;;;;;23.63;11.40;;;;;;;2.79;77.73;102781.69;5064835;28;20036;-66
2022/04/17 03:07:26;;;;;;;22.27;10.75;;;;;;;2.84;79.20;102775.88;5062682;28;20035;-66
2022/04/17 03:09:52;;;;;;;22.88;11.32;;;;;;;2.87;78.72;102776.06;5061972;28;20028;-66
2022/04/17 03:12:17;;;;;;;23.77;11.30;;;;;;;2.78;80.92;102782.50;5065166;28;20043;-66
2022/04/17 03:14:46;;;;;;;22.98;11.43;;;;;;;2.81;81.01;102773.03;5063250;28;20036;-66
2022/04/17 03:17:11;;;;;;;22.70;11.45;;;;;;;2.68;80.37;102769.63;5064208;28;20032;-66
2022/04/17 03:19:36;;;;;;;22.58;11.07;;;;;;;2.66;80.63;102771.22;5063841;28;20398;-66
2022/04/17 03:22:02;;;;;;;23.00;11.90;;;;;;;2.63;79.73;102771.00;5062753;28;20025;-66
2022/04/17 03:24:28;;;;;;;22.92;11.75;;;;;;;2.47;80.58;102760.34;5065372;28;20031;-66
2022/04/17 03:26:53;;;;;;;23.10;11.70;;;;;;;2.36;81.18;102765.75;5061588;28;20025;-66
2022/04/17 03:29:19;;;;;;;23.50;11.68;;;;;;;2.43;82.89;102765.34;5065126;28;20032;-66
2022/04/17 03:31:44;;;;;;;23.38;11.85;;;;;;;2.42;82.91;102766.16;5062649;28;20027;-66
2022/04/17 03:34:10;;;;;;;23.95;11.95;;;;;;;2.36;83.05;102763.13;5063053;28;20025;-66
2022/04/17 03:36:39;;;;;;;23.58;12.10;;;;;;;2.39;84.95;102768.56;5063787;28;20028;-66
2022/04/17 03:39:05;;;;;;;23.05;12.20;;;;;;;2.44;84.49;102761.91;5062494;28;20024;-66
2022/04/17 03:41:31;;;;;;;23.20;11.73;;;;;;;2.40;83.98;102759.94;5064540;28;20020;-65
2022/04/17 03:43:56;;;;;;;23.00;12.05;;;;;;;2.41;83.57;102759.09;5062160;28;20067;-65
2022/04/17 03:46:22;;;;;;;23.23;12.13;;;;;;;2.33;85.09;102751.56;5061452;28;20037;-65
2022/04/17 03:48:47;;;;;;;22.92;12.43;;;;;;;2.29;85.21;102752.13;5064554;28;20028;-65
2022/04/17 03:51:12;;;;;;;22.65;11.80;;;;;;;2.30;84.56;102754.88;5060942;28;20043;-65
2022/04/17 03:53:38;;;;;;;22.15;11.35;;;;;;;2.44;84.49;102758.41;5062826;28;20395;-65
2022/04/17 03:56:03;;;;;;;23.08;11.75;;;;;;;2.36;85.07;102764.81;5063905;28;20066;-65
2022/04/17 03:58:28;;;;;;;21.80;11.23;;;;;;;2.39;84.49;102755.50;5061301;28;20075;-65
2022/04/17 04:00:54;;;;;;;25.35;13.70;;;;;;;2.43;84.14;102751.38;5064562;28;20466;-65
2022/04/17 04:03:19;;;;;;;23.52;12.30;;;;;;;2.38;83.72;102752.78;5061731;28;20025;-65
2022/04/17 04:05:44;;;;;;;25.25;14.13;;;;;;;2.28;83.01;102755.56;5063573;28;20021;-65
2022/04/17 04:08:10;;;;;;;23.60;12.18;;;;;;;2.29;84.17;102747.84;5061113;28;20040;-65
2022/04/17 04:10:35;;;;;;;24.10;11.95;;;;;;;2.18;84.93;102754.03;5062643;28;20029;-65
2022/04/17 04:13:01;;;;;;;24.25;12.38;;;;;;;2.12;85.10;102744.06;5063849;28;20081;-65
2022/04/17 04:15:26;;;;;;;23.23;11.70;;;;;;;2.03;85.24;102744.34;5061277;28;20025;-65
2022/04/17 04:17:52;;;;;;;23.08;11.90;;;;;;;1.81;85.92;102744.53;5064576;28;20455;-65
2022/04/17 04:20:17;;;;;;;22.85;11.63;;;;;;;1.78;87.99;102739.13;5061515;28;20134;-65
2022/04/17 04:22:42;;;;;;;22.70;11.98;;;;;;;1.70;88.55;102725.53;5063259;28;20380;-65
2022/04/17 04:25:08;;;;;;;23.20;11.98;;;;;;;1.77;87.49;102725.97;5063116;28;20107;-65
2022/04/17 04:30:18;;;;;;;23.67;12.07;;;;;;;1.65;93.24;102729.50;5061634;28;20455;-65
2022/04/17 04:32:52;;;;;;;23.98;12.43;;;;;;;1.54;96.47;102731.38;5063403;28;20021;-65
2022/04/17 04:35:17;;;;;;;23.08;12.40;;;;;;;1.41;97.36;102731.25;5061897;28;20050;-66
2022/04/17 04:37:43;;;;;;;23.05;12.10;;;;;;;1.45;99.83;102728.09;5061496;28;20404;-66
2022/04/17 04:40:09;;;;;;;25.33;12.45;;;;;;;1.41;98.83;102730.38;5062699;28;20035;-65
2022/04/17 04:42:34;;;;;;;24.15;12.52;;;;;;;1.51;97.48;102725.03;5061532;28;20033;-65
2022/04/17 04:47:43;;;;;;;27.98;15.75;;;;;;;1.44;98.49;102731.47;5064942;28;20126;-65
2022/04/17 04:50:08;;;;;;;25.50;14.70;;;;;;;1.49;99.17;102721.41;5066864;28;20060;-66
2022/04/17 04:52:35;;;;;;;27.88;17.98;;;;;;;1.47;99.22;102722.97;5065507;28;20475;-66
2022/04/17 04:55:01;;;;;;;40.75;36.45;;;;;;;1.52;99.52;102721.63;5067422;28;20035;-66
2022/04/17 04:57:26;;;;;;;39.67;35.17;;;;;;;1.62;99.32;102724.09;5064823;28;20017;-66
2022/04/17 04:59:52;;;;;;;26.23;15.07;;;;;;;1.67;99.32;102725.31;5067743;28;20035;-66
2022/04/17 05:02:17;;;;;;;31.45;20.70;;;;;;;1.72;99.92;102723.94;5065384;28;20039;-65
2022/04/17 05:04:43;;;;;;;22.80;12.18;;;;;;;1.79;97.77;102720.06;5066933;28;20025;-66
2022/04/17 05:07:09;;;;;;;24.92;12.68;;;;;;;1.80;99.36;102723.56;5066249;28;20052;-66
2022/04/17 05:09:34;;;;;;;27.25;12.90;;;;;;;1.82;98.29;102721.97;5065166;28;20068;-66
2022/04/17 05:11:59;;;;;;;27.35;13.75;;;;;;;1.79;97.66;102732.19;5067932;28;20035;-66
2022/04/17 05:14:29;;;;;;;24.77;13.65;;;;;;;1.76;98.25;102731.97;5064344;28;20052;-66
2022/04/17 05:16:54;;;;;;;23.75;13.27;;;;;;;1.83;99.31;102729.00;5064465;28;20053;-65
2022/04/17 05:19:20;;;;;;;23.88;12.50;;;;;;;1.84;99.55;102728.22;5067425;28;20059;-66
2022/04/17 05:21:47;;;;;;;24.15;12.73;;;;;;;1.84;98.01;102736.03;5065072;28;20134;-66
2022/04/17 05:24:16;;;;;;;23.23;12.27;;;;;;;1.87;97.93;102734.53;5066019;28;20025;-66
2022/04/17 05:26:42;;;;;;;23.48;12.48;;;;;;;1.85;98.97;102732.59;5066085;28;20379;-66
2022/04/17 05:29:07;;;;;;;24.58;12.63;;;;;;;1.90;100.00;102739.06;5065363;28;20021;-66
2022/04/17 05:31:32;;;;;;;23.90;13.45;;;;;;;1.85;99.21;102733.53;5067043;28;20061;-66
2022/04/17 05:33:58;;;;;;;26.85;15.60;;;;;;;1.97;99.11;102727.38;5064141;28;20040;-66
2022/04/17 05:36:23;;;;;;;24.73;14.13;;;;;;;2.00;99.87;102733.69;5064189;28;20468;-66
2022/04/17 05:38:49;;;;;;;24.35;13.05;;;;;;;2.16;99.50;102727.81;5066856;28;20493;-66
2022/04/17 05:41:14;;;;;;;25.17;13.65;;;;;;;2.22;99.04;102736.06;5064919;28;20475;-66
2022/04/17 05:43:40;;;;;;;23.73;13.15;;;;;;;2.27;99.98;102733.75;5065352;28;20025;-65
2022/04/17 05:46:06;;;;;;;25.85;15.05;;;;;;;2.33;100.00;102742.03;5066109;28;20063;-66
2022/04/17 05:48:32;;;;;;;24.30;14.20;;;;;;;2.47;100.00;102739.44;5064068;28;20078;-66
2022/04/17 05:50:58;;;;;;;25.73;15.02;;;;;;;2.48;100.00;102739.56;5067023;28;20024;-66
2022/04/17 05:53:23;;;;;;;25.95;13.98;;;;;;;2.69;99.83;102733.97;5063738;28;20491;-66
2022/04/17 05:55:48;;;;;;;23.92;14.13;;;;;;;2.90;96.18;102737.09;5066363;28;20501;-66
2022/04/17 05:58:14;;;;;;;27.48;18.63;;;;;;;3.04;94.16;102733.66;5064684;28;20024;-66
2022/04/17 06:00:42;;;;;;;25.17;15.68;;;;;;;3.09;93.31;102736.59;5065042;28;20020;-67
2022/04/17 06:03:07;;;;;;;26.30;15.65;;;;;;;3.17;93.40;102731.84;5065857;28;20375;-65
2022/04/17 06:05:33;;;;;;;25.58;16.60;;;;;;;3.23;93.60;102735.78;5063863;28;20025;-65
2022/04/17 06:07:58;;;;;;;25.70;16.63;;;;;;;3.32;93.94;102730.25;5066989;28;20024;-65
2022/04/17 06:10:24;;;;;;;25.90;16.00;;;;;;;3.36;93.77;102731.31;5063502;28;20422;-65
2022/04/17 06:12:49;;;;;;;25.63;14.05;;;;;;;3.47;94.01;102731.19;5065889;28;20090;-65
2022/04/17 06:15:14;;;;;;;23.98;13.70;;;;;;;3.59;92.25;102731.06;5064806;28;20115;-65
2022/04/17 06:17:41;;;;;;;24.35;12.10;;;;;;;3.78;90.48;102740.97;5064861;28;20025;-65
2022/04/17 06:20:10;;;;;;;23.17;11.02;;;;;;;3.94;89.09;102726.22;5065403;28;20031;-65
2022/04/17 06:22:36;;;;;;;23.35;11.50;;;;;;;4.19;83.36;102723.38;5064344;28;20078;-65
2022/04/17 06:25:04;;;;;;;23.60;11.57;;;;;;;4.37;82.33;102723.59;5066128;28;20108;-65
2022/04/17 06:27:37;;;;;;;22.67;10.65;;;;;;;4.56;80.14;102728.22;5063019;28;20089;-65
2022/04/17 06:30:12;;;;;;;21.27;9.82;;;;;;;4.79;76.54;102726.94;5066231;28;20388;-65
2022/04/17 06:32:39;;;;;;;23.58;10.60;;;;;;;5.02;76.67;102715.16;5064220;28;20405;-65
2022/04/17 06:35:07;;;;;;;22.25;10.23;;;;;;;5.22;75.53;102718.00;5065361;28;20626;-65
2022/04/17 06:37:44;;;;;;;21.98;10.15;;;;;;;5.31;72.78;102713.25;5063166;28;20033;-65
2022/04/17 06:40:10;;;;;;;20.70;9.50;;;;;;;5.48;72.54;102715.94;5064540;28;20064;-65
2022/04/17 06:42:35;;;;;;;20.88;8.90;;;;;;;5.55;68.32;102718.06;5063507;28;20060;-65
2022/04/17 06:45:01;;;;;;;20.95;8.73;;;;;;;5.63;67.80;102718.47;5065546;28;20076;-66
2022/04/17 06:47:30;;;;;;;20.15;8.77;;;;;;;5.65;67.06;102730.88;5062795;28;20025;-66
2022/04/17 06:49:55;;;;;;;19.70;8.70;;;;;;;5.82;66.38;102729.13;5062653;28;20025;-71
2022/04/17 06:52:21;;;;;;;20.98;8.70;;;;;;;5.90;64.77;102722.59;5065473;28;20033;-68
2022/04/17 06:54:46;;;;;;;19.70;8.50;;;;;;;6.04;65.38;102720.75;5063634;28;20112;-66
2022/04/17 06:57:11;;;;;;;19.77;8.23;;;;;;;6.07;61.02;102715.66;5064200;28;20059;-66
2022/04/17 06:59:37;;;;;;;21.25;8.60;;;;;;;6.23;62.41;102722.59;5064565;28;20028;-65
2022/04/17 07:02:02;;;;;;;19.63;8.25;;;;;;;6.31;62.07;102715.13;5062824;28;20025;-66
2022/04/17 07:04:28;;;;;;;19.25;8.07;;;;;;;6.45;63.12;102715.81;5065772;28;20093;-66
2022/04/17 07:06:54;;;;;;;19.73;8.07;;;;;;;6.49;60.96;102720.41;5062153;28;20032;-66
2022/04/17 07:09:19;;;;;;;19.05;7.95;;;;;;;6.59;60.87;102717.41;5064168;28;20040;-66
2022/04/17 07:11:44;;;;;;;19.83;7.70;;;;;;;6.69;60.64;102713.53;5063194;28;20024;-66
2022/04/17 07:14:14;;;;;;;19.33;7.90;;;;;;;6.75;59.87;102712.94;5063527;28;20029;-66
2022/04/17 07:16:40;;;;;;;20.08;7.82;;;;;;;6.88;58.19;102707.44;5064260;28;20121;-66
2022/04/17 07:19:05;;;;;;;20.65;7.60;;;;;;;7.01;57.59;102706.34;5062854;28;20391;-66
2022/04/17 07:21:31;;;;;;;19.90;7.40;;;;;;;7.12;55.77;102706.84;5065236;28;20032;-66
2022/04/17 07:23:57;;;;;;;20.05;7.43;;;;;;;7.17;55.25;102702.72;5062282;28;20060;-66
2022/04/17 07:26:23;;;;;;;19.63;7.45;;;;;;;7.46;57.09;102688.28;5064930;28;20545;-66
2022/04/17 07:28:49;;;;;;;19.25;7.20;;;;;;;7.68;54.08;102691.91;5062627;28;20029;-66
2022/04/17 07:31:14;;;;;;;18.00;7.10;;;;;;;7.73;52.92;102694.75;5063986;28;20409;-66
2022/04/17 07:33:39;;;;;;;19.38;7.30;;;;;;;7.83;54.33;102691.72;5063612;28;20051;-66
2022/04/17 07:36:05;;;;;;;19.60;7.55;;;;;;;7.95;53.12;102689.63;5062441;28;20032;-67
2022/04/17 07:38:30;;;;;;;19.23;7.18;;;;;;;7.92;52.32;102685.94;5064766;28;20028;-66
2022/04/17 07:40:56;;;;;;;19.30;7.10;;;;;;;7.88;51.92;102690.19;5061326;28;20029;-66
2022/04/17 07:43:21;;;;;;;19.23;7.10;;;;;;;8.08;53.59;102677.91;5064769;28;20036;-66
2022/04/17 07:45:46;;;;;;;18.95;7.15;;;;;;;8.22;50.65;102686.41;5062453;28;20445;-66
2022/04/17 07:48:11;;;;;;;18.85;7.15;;;;;;;8.24;51.31;102684.72;5063044;28;20040;-66
2022/04/17 07:50:37;;;;;;;18.75;7.07;;;;;;;8.22;50.56;102678.50;5064238;28;20032;-66
2022/04/17 07:53:02;;;;;;;19.58;7.30;;;;;;;8.31;53.75;102678.88;5061709;28;20025;-67
2022/04/17 07:55:28;;;;;;;18.42;7.10;;;;;;;8.54;50.56;102673.72;5064591;28;20028;-66
2022/04/17 08:00:57;;;;;;;18.63;7.05;;;;;;;9.03;48.76;102675.75;5062609;28;20086;-67
2022/04/17 08:03:35;;;;;;;19.17;7.38;;;;;;;9.44;47.70;102678.19;5061683;28;20386;-66
2022/04/17 08:06:05;;;;;;;18.60;6.88;;;;;;;9.67;46.78;102675.50;5061039;28;20036;-66
2022/04/17 08:08:31;;;;;;;19.95;6.95;;;;;;;9.82;46.27;102677.84;5064559;28;20071;-66
2022/04/17 08:10:57;;;;;;;18.38;6.82;;;;;;;10.17;45.34;102672.91;5061272;28;20025;-67
2022/04/17 08:13:23;;;;;;;18.38;6.60;;;;;;;10.43;44.93;102665.91;5064153;28;20024;-67
2022/04/17 08:15:50;;;;;;;18.77;6.60;;;;;;;10.72;44.29;102666.88;5061973;28;20035;-67
2022/04/17 08:18:15;;;;;;;18.25;6.57;;;;;;;10.93;43.23;102669.31;5065268;28;20071;-67
2022/04/17 08:20:41;;;;;;;18.08;6.40;;;;;;;10.98;43.56;102670.38;5062023;28;20483;-66
2022/04/17 08:23:06;;;;;;;18.55;6.30;;;;;;;11.07;42.33;102676.81;5063619;28;20456;-66
2022/04/17 08:25:33;;;;;;;19.35;6.35;;;;;;;11.43;42.40;102677.03;5061533;28;20483;-67
2022/04/17 08:27:58;;;;;;;18.13;6.30;;;;;;;12.05;41.70;102676.16;5064594;28;20032;-67
2022/04/17 08:30:26;;;;;;;18.27;6.45;;;;;;;12.16;41.79;102661.44;5061263;28;20032;-67
2022/04/17 08:32:51;;;;;;;18.40;6.40;;;;;;;12.38;41.15;102672.63;5064146;28;20085;-66
2022/04/17 08:35:17;;;;;;;18.00;6.30;;;;;;;12.65;39.55;102658.25;5061883;28;20099;-66
2022/04/17 08:37:43;;;;;;;18.02;6.10;;;;;;;12.97;39.46;102661.66;5062608;28;20032;-66
2022/04/17 08:40:10;;;;;;;16.83;5.95;;;;;;;13.62;37.28;102659.59;5063328;28;20043;-66
2022/04/17 08:42:37;;;;;;;17.33;5.85;;;;;;;14.13;36.66;102659.69;5061324;28;20032;-66
2022/04/17 08:45:03;;;;;;;18.17;5.80;;;;;;;14.46;36.78;102660.28;5063693;28;20091;-66
2022/04/17 08:47:29;;;;;;;17.20;5.82;;;;;;;14.95;35.03;102658.41;5060896;28;20464;-66
2022/04/17 08:49:55;;;;;;;16.95;5.50;;;;;;;15.44;34.41;102665.31;5062618;28;20047;-66
2022/04/17 08:52:22;;;;;;;17.38;5.85;;;;;;;15.67;34.17;102650.50;5061739;28;20025;-66
2022/04/17 08:54:48;;;;;;;17.98;5.55;;;;;;;15.77;34.41;102654.16;5060215;28;20388;-67
2022/04/17 08:57:16;;;;;;;18.85;5.90;;;;;;;16.12;33.71;102652.75;5064276;28;20037;-68
2022/04/17 08:59:41;;;;;;;18.73;6.07;;;;;;;16.26;32.80;102648.47;5063697;28;20078;-67
2022/04/17 09:02:10;;;;;;;17.38;5.75;;;;;;;16.51;32.50;102662.00;5060525;28;20028;-67
2022/04/17 09:04:36;;;;;;;17.55;5.63;;;;;;;16.95;30.81;102648.16;5062086;28;20029;-68
2022/04/17 09:07:01;;;;;;;17.67;5.38;;;;;;;17.45;32.20;102651.97;5061669;28;20021;-67
2022/04/17 09:09:28;;;;;;;16.15;5.38;;;;;;;17.53;30.53;102650.22;5063546;28;20101;-68
2022/04/17 09:11:57;;;;;;;16.85;5.80;;;;;;;17.38;30.42;102635.00;5060669;28;20021;-68
2022/04/17 09:14:23;;;;;;;17.13;5.80;;;;;;;17.47;29.73;102643.94;5063821;28;20028;-68
2022/04/17 09:16:51;;;;;;;15.85;5.47;;;;;;;17.74;29.17;102646.72;5060586;28;20037;-67
2022/04/17 09:19:18;;;;;;;18.55;5.70;;;;;;;17.26;29.36;102642.97;5063601;28;20107;-67
2022/04/17 09:21:44;;;;;;;15.45;5.28;;;;;;;16.28;31.32;102633.38;5060852;28;20060;-67
2022/04/17 09:24:20;;;;;;;17.52;5.68;;;;;;;15.77;32.20;102629.25;5062836;28;20472;-68
2022/04/17 09:26:56;;;;;;;17.42;5.63;;;;;;;15.72;32.85;102629.22;5060889;28;20040;-68
2022/04/17 09:29:23;;;;;;;16.00;5.68;;;;;;;16.17;31.52;102627.03;5060228;28;20024;-67
2022/04/17 09:32:02;;;;;;;16.25;5.60;;;;;;;16.60;31.93;102616.72;5060350;28;20026;-67
2022/04/17 09:34:52;;;;;;;16.25;5.55;;;;;;;16.57;32.01;102622.00;5063809;28;20029;-69
2022/04/17 09:37:19;;;;;;;16.63;5.50;;;;;;;17.00;31.24;102621.47;5064067;28;20540;-67
2022/04/17 09:39:46;;;;;;;16.77;5.60;;;;;;;17.49;30.61;102618.09;5067115;28;20044;-67
2022/04/17 09:42:11;;;;;;;17.65;5.78;;;;;;;17.32;30.15;102616.28;5064813;28;20025;-67
2022/04/17 09:44:49;;;;;;;17.88;5.78;;;;;;;18.15;30.04;102614.75;5065449;28;20036;-67
2022/04/17 09:47:21;;;;;;;17.23;5.70;;;;;;;19.12;28.46;102607.50;5064581;28;20029;-68
2022/04/17 09:49:57;;;;;;;18.10;5.97;;;;;;;19.64;28.18;102602.78;5067083;28;20024;-68
2022/04/17 09:52:35;;;;;;;16.42;5.40;;;;;;;19.96;27.04;102599.91;5063942;28;20032;-68
2022/04/17 09:55:02;;;;;;;15.88;5.40;;;;;;;20.67;26.10;102595.75;5064280;28;20483;-67
2022/04/17 09:57:36;;;;;;;17.17;5.30;;;;;;;20.22;26.19;102581.84;5066222;28;20029;-68
2022/04/17 10:00:16;;;;;;;16.10;5.30;;;;;;;20.41;24.58;102587.94;5064769;28;20057;-68
2022/04/17 10:02:44;;;;;;;14.60;5.30;;;;;;;20.88;25.51;102582.09;5064717;28;20017;-68
2022/04/17 10:05:20;;;;;;;17.02;5.88;;;;;;;20.84;24.94;102574.97;5065677;28;20029;-67
2022/04/17 10:07:47;;;;;;;16.55;5.50;;;;;;;20.90;24.83;102574.03;5063665;28;20123;-68
2022/04/17 10:10:14;;;;;;;16.10;5.50;;;;;;;21.10;24.51;102570.19;5065702;28;20025;-68
2022/04/17 10:12:41;;;;;;;13.75;4.88;;;;;;;21.61;23.66;102559.69;5064561;28;20025;-68
2022/04/17 10:15:07;;;;;;;13.82;4.80;;;;;;;21.93;22.89;102558.25;5064909;28;20384;-68
2022/04/17 10:17:38;;;;;;;13.73;4.40;;;;;;;21.97;23.75;102560.00;5065338;28;20016;-68
2022/04/17 10:20:08;;;;;;;13.60;4.70;;;;;;;21.68;23.23;102560.47;5064581;28;20475;-69
2022/04/17 10:22:34;;;;;;;14.10;4.68;;;;;;;22.45;21.99;102546.63;5047303;28;20036;-69
2022/04/17 10:25:02;;;;;;;15.40;4.70;;;;;;;23.13;21.24;102547.09;5064009;28;20029;-69
2022/04/17 10:27:33;;;;;;;14.60;4.68;;;;;;;23.40;21.92;102544.72;5066078;28;20020;-69
2022/04/17 10:30:07;;;;;;;14.57;4.70;;;;;;;23.42;21.58;102535.66;5063369;28;20029;-69
2022/04/17 10:32:33;;;;;;;13.43;4.40;;;;;;;23.91;20.89;102522.84;5064962;28;20025;-69
2022/04/17 10:35:04;;;;;;;12.63;4.30;;;;;;;23.81;20.67;102524.84;5063211;28;20044;-69
2022/04/17 10:37:54;;;;;;;14.93;4.57;;;;;;;23.64;21.85;102517.16;5065586;28;20036;-69
2022/04/17 10:40:19;;;;;;;16.13;4.40;;;;;;;24.13;21.35;102514.16;5063002;28;20025;-69
2022/04/17 10:42:59;;;;;;;13.73;4.50;;;;;;;23.93;21.73;102506.59;5065479;28;20077;-69
2022/04/17 10:45:26;;;;;;;12.02;4.30;;;;;;;24.05;21.31;102510.78;5062274;28;20077;-69
2022/04/17 10:48:09;;;;;;;12.98;4.47;;;;;;;25.51;21.51;102508.38;5065825;28;20025;-68
2022/04/17 10:50:42;;;;;;;14.93;4.80;;;;;;;26.25;20.31;102505.91;5063968;28;20029;-69
2022/04/17 10:53:27;;;;;;;13.23;4.10;;;;;;;26.62;17.57;102499.16;5064278;28;20471;-69
2022/04/17 10:56:10;;;;;;;11.48;3.92;;;;;;;26.65;18.27;102500.84;5062461;28;20056;-68
2022/04/17 10:58:44;;;;;;;12.52;4.30;;;;;;;26.83;17.67;102492.06;5064033;28;20049;-69
2022/04/17 11:01:13;;;;;;;13.57;4.20;;;;;;;27.64;16.94;102484.34;5063690;28;20025;-69
2022/04/17 11:03:38;;;;;;;9.85;3.85;;;;;;;27.41;16.77;102483.47;5064024;28;20032;-69
2022/04/17 11:06:30;;;;;;;12.35;3.65;;;;;;;27.13;16.53;102468.28;5064771;28;20024;-68
2022/04/17 11:09:04;;;;;;;11.75;3.67;;;;;;;25.39;17.53;102479.91;5062091;28;20025;-68
2022/04/17 11:11:36;;;;;;;13.05;4.00;;;;;;;25.54;16.81;102476.72;5064948;28;20420;-67
2022/04/17 11:14:11;;;;;;;15.80;4.20;;;;;;;26.20;17.60;102480.81;5063236;28;20029;-67
2022/04/17 11:16:39;;;;;;;9.88;3.83;;;;;;;26.77;17.14;102471.47;5063575;28;20027;-68
2022/04/17 11:19:09;;;;;;;12.38;3.95;;;;;;;27.72;16.94;102471.31;5063262;28;20071;-67
2022/04/17 11:21:44;;;;;;;12.48;3.95;;;;;;;27.89;17.20;102461.53;5064264;28;20033;-67
2022/04/17 11:24:09;;;;;;;10.80;3.70;;;;;;;28.17;16.58;102461.25;5063992;28;20460;-68
2022/04/17 11:26:58;;;;;;;14.15;3.95;;;;;;;28.74;15.88;102453.22;5063829;28;20070;-68
2022/04/17 11:29:37;;;;;;;11.63;3.75;;;;;;;27.73;16.28;102445.91;5061318;28;20048;-68
2022/04/17 11:32:23;;;;;;;13.13;3.80;;;;;;;27.93;16.05;102441.44;5062872;28;20036;-67
2022/04/17 11:34:53;;;;;;;14.15;3.80;;;;;;;27.65;15.60;102442.63;5060347;28;20466;-69
2022/04/17 11:37:29;;;;;;;11.35;3.75;;;;;;;27.75;16.18;102432.28;5060537;28;20028;-68
2022/04/17 11:40:10;;;;;;;11.85;3.80;;;;;;;27.18;15.85;102431.94;5063568;28;20028;-68